Time;durP1;ratioP1;P1;durP2;ratioP2;P2;SDS_P1;SDS_P2;PMS_P1;PMS_P2;Temp;Humidity;BMP_temperature;BMP_pressure;BME280_temperature;BME280_humidity;BME280_pressure;Samples;Min_cycle;Max_cycle;Signal;HPM_P1;HPM_P2
2023/08/08 00:01:01;;;;;;;1.70;1.08;;;20.90;68.80;;;;;;5073662;28;20041;-62
2023/08/08 00:03:27;;;;;;;3.67;1.00;;;20.90;68.90;;;;;;5070993;28;20044;-63
2023/08/08 00:05:52;;;;;;;2.45;0.90;;;20.80;68.80;;;;;;5072769;28;20054;-62
2023/08/08 00:08:18;;;;;;;3.15;0.80;;;20.80;68.80;;;;;;5072892;28;20040;-63
2023/08/08 00:10:43;;;;;;;2.45;1.10;;;20.80;68.80;;;;;;5072598;28;20175;-63
2023/08/08 00:13:09;;;;;;;3.67;1.00;;;20.80;68.90;;;;;;5073598;28;20043;-63
2023/08/08 00:15:35;;;;;;;2.50;0.85;;;20.80;68.90;;;;;;5072859;28;20146;-63
2023/08/08 00:18:00;;;;;;;2.47;1.08;;;20.80;68.90;;;;;;5072078;28;20098;-63
2023/08/08 00:20:26;;;;;;;1.92;0.80;;;20.80;68.90;;;;;;5072672;28;20522;-62
2023/08/08 00:22:52;;;;;;;2.58;1.08;;;20.80;68.90;;;;;;5072716;28;20040;-63
2023/08/08 00:25:17;;;;;;;2.70;1.05;;;20.80;68.90;;;;;;5072479;28;20048;-63
2023/08/08 00:27:43;;;;;;;2.55;1.08;;;20.80;68.90;;;;;;5073007;28;20449;-62
2023/08/08 00:30:11;;;;;;;2.08;0.90;;;20.80;68.90;;;;;;5073351;28;20536;-62
2023/08/08 00:32:37;;;;;;;2.28;0.68;;;20.80;68.90;;;;;;5070195;28;20060;-62
2023/08/08 00:35:03;;;;;;;1.90;0.85;;;20.80;68.90;;;;;;5071702;28;20044;-62
2023/08/08 00:37:28;;;;;;;1.92;0.85;;;20.80;68.90;;;;;;5073102;28;20082;-62
2023/08/08 00:39:54;;;;;;;3.92;0.90;;;20.80;68.90;;;;;;5071869;28;20040;-62
2023/08/08 00:42:19;;;;;;;1.50;0.77;;;20.80;68.90;;;;;;5073149;28;20056;-62
2023/08/08 00:44:45;;;;;;;3.60;1.10;;;20.80;68.90;;;;;;5072730;28;20072;-62
2023/08/08 00:47:10;;;;;;;2.63;1.20;;;20.80;69.00;;;;;;5071835;28;20135;-63
2023/08/08 00:49:36;;;;;;;1.67;0.90;;;20.80;68.90;;;;;;5072824;28;20049;-63
2023/08/08 00:52:02;;;;;;;2.22;0.93;;;20.80;69.00;;;;;;5071779;28;20044;-62
2023/08/08 00:54:28;;;;;;;2.22;0.98;;;20.70;68.90;;;;;;5071187;28;20045;-62
2023/08/08 00:56:53;;;;;;;2.45;0.90;;;20.80;69.00;;;;;;5072714;28;20463;-62
2023/08/08 00:59:19;;;;;;;1.50;0.90;;;20.80;69.00;;;;;;5071625;28;20045;-62
2023/08/08 01:01:44;;;;;;;2.92;1.08;;;20.70;68.90;;;;;;5071704;28;20052;-62
2023/08/08 01:04:10;;;;;;;1.02;0.75;;;20.70;68.90;;;;;;5072860;28;20123;-63
2023/08/08 01:06:51;;;;;;;2.80;0.80;;;20.70;69.00;;;;;;5053910;28;20072;-62
2023/08/08 01:09:21;;;;;;;2.20;0.82;;;20.70;68.90;;;;;;5071635;28;20120;-63
2023/08/08 01:11:48;;;;;;;2.58;1.15;;;20.70;69.00;;;;;;5072363;28;20048;-63
2023/08/08 01:14:14;;;;;;;2.72;0.90;;;20.70;69.00;;;;;;5053787;28;20127;-62
2023/08/08 01:16:39;;;;;;;2.38;0.95;;;20.70;69.00;;;;;;5071197;28;20116;-62
2023/08/08 01:19:05;;;;;;;2.00;0.80;;;20.70;69.00;;;;;;5072898;28;20049;-63
2023/08/08 01:21:30;;;;;;;2.22;1.00;;;20.70;69.00;;;;;;5053586;28;20048;-62
2023/08/08 01:23:58;;;;;;;1.92;0.90;;;20.70;69.00;;;;;;5054080;28;20047;-62
2023/08/08 01:26:23;;;;;;;2.28;0.85;;;20.70;69.00;;;;;;5071518;28;20048;-62
2023/08/08 01:28:53;;;;;;;3.03;0.90;;;20.70;69.00;;;;;;5053640;28;20055;-62
2023/08/08 01:31:18;;;;;;;2.53;0.90;;;20.70;69.00;;;;;;5072099;28;20059;-63
2023/08/08 01:33:44;;;;;;;2.22;0.93;;;20.70;69.10;;;;;;5072030;28;20130;-62
2023/08/08 01:36:22;;;;;;;2.58;0.90;;;20.70;69.00;;;;;;5070490;28;20052;-62
2023/08/08 01:38:48;;;;;;;2.45;0.90;;;20.70;69.00;;;;;;5070807;28;20064;-62
2023/08/08 01:41:13;;;;;;;3.20;0.90;;;20.60;69.00;;;;;;5053969;28;20125;-62
2023/08/08 01:43:39;;;;;;;1.73;0.90;;;20.70;69.10;;;;;;5036609;28;20051;-62
2023/08/08 01:46:05;;;;;;;2.38;1.00;;;20.70;69.00;;;;;;5070785;28;20462;-62
2023/08/08 01:48:30;;;;;;;1.67;0.88;;;20.70;69.10;;;;;;5071178;28;20550;-62
2023/08/08 01:50:56;;;;;;;2.25;0.90;;;20.70;69.10;;;;;;5070403;28;20040;-62
2023/08/08 01:53:22;;;;;;;1.83;0.88;;;20.60;69.10;;;;;;5072044;28;20036;-62
2023/08/08 01:55:47;;;;;;;2.15;1.02;;;20.60;69.10;;;;;;5069392;28;20434;-62
2023/08/08 01:58:13;;;;;;;1.75;0.70;;;20.60;69.00;;;;;;5070726;28;20412;-62
2023/08/08 02:00:40;;;;;;;2.53;1.15;;;20.60;69.10;;;;;;5071678;28;20044;-62
2023/08/08 02:03:06;;;;;;;2.42;0.90;;;20.60;69.00;;;;;;5071413;28;20048;-62
2023/08/08 02:05:32;;;;;;;1.95;0.80;;;20.60;69.00;;;;;;5071430;28;20105;-62
2023/08/08 02:07:57;;;;;;;3.97;1.00;;;20.60;69.10;;;;;;5071543;28;20101;-62
2023/08/08 02:10:23;;;;;;;2.10;0.80;;;20.60;69.10;;;;;;5071174;28;20048;-62
2023/08/08 02:12:48;;;;;;;1.40;0.82;;;20.60;69.10;;;;;;5074611;28;20059;-62
2023/08/08 02:15:14;;;;;;;2.55;1.00;;;20.60;69.10;;;;;;5075324;28;20040;-62
2023/08/08 02:17:40;;;;;;;1.45;0.85;;;20.60;69.10;;;;;;5074610;28;20043;-62
2023/08/08 02:20:06;;;;;;;1.45;0.70;;;20.60;69.10;;;;;;5075403;28;20036;-62
2023/08/08 02:22:32;;;;;;;1.50;0.88;;;20.60;69.20;;;;;;5075480;28;20400;-62
2023/08/08 02:24:58;;;;;;;1.48;0.80;;;20.60;69.20;;;;;;5074584;28;20036;-62
2023/08/08 02:27:23;;;;;;;2.58;0.93;;;20.60;69.10;;;;;;5075619;28;20083;-62
2023/08/08 02:29:49;;;;;;;1.02;0.70;;;20.60;69.10;;;;;;5075138;28;20032;-62
2023/08/08 02:32:14;;;;;;;2.47;1.15;;;20.50;69.10;;;;;;5073758;28;20526;-62
2023/08/08 02:34:41;;;;;;;2.70;0.93;;;20.60;69.10;;;;;;5074940;28;20128;-62
2023/08/08 02:37:06;;;;;;;2.92;1.10;;;20.60;69.10;;;;;;5075562;28;20052;-63
2023/08/08 02:39:32;;;;;;;1.67;0.80;;;20.60;69.20;;;;;;5074350;28;20033;-62
2023/08/08 02:41:57;;;;;;;1.63;0.90;;;20.60;69.20;;;;;;5074729;28;20079;-62
2023/08/08 02:44:23;;;;;;;1.42;0.88;;;20.50;69.10;;;;;;5075390;28;20040;-63
2023/08/08 02:46:49;;;;;;;1.92;0.80;;;20.60;69.10;;;;;;5073954;28;20050;-62
2023/08/08 02:49:14;;;;;;;1.27;0.70;;;20.50;69.10;;;;;;5075344;28;20396;-63
2023/08/08 02:51:40;;;;;;;1.65;0.80;;;20.50;69.10;;;;;;5073605;28;20087;-63
2023/08/08 02:54:05;;;;;;;1.95;0.77;;;20.50;69.10;;;;;;5074778;28;20040;-62
2023/08/08 02:56:31;;;;;;;1.40;0.80;;;20.60;69.20;;;;;;5075058;28;20174;-62
2023/08/08 02:58:56;;;;;;;2.13;1.10;;;20.50;69.10;;;;;;5074018;28;20041;-62
2023/08/08 03:01:22;;;;;;;2.67;1.05;;;20.50;69.10;;;;;;5074694;28;20055;-62
2023/08/08 03:03:48;;;;;;;2.35;0.60;;;20.50;69.20;;;;;;5074480;28;20110;-62
2023/08/08 03:06:13;;;;;;;1.58;0.68;;;20.50;69.20;;;;;;5072725;28;20071;-62
2023/08/08 03:08:39;;;;;;;2.33;1.05;;;20.50;69.20;;;;;;5073968;28;20036;-62
2023/08/08 03:11:04;;;;;;;1.65;0.90;;;20.50;69.20;;;;;;5074682;28;20121;-62
2023/08/08 03:13:30;;;;;;;1.77;0.82;;;20.50;69.20;;;;;;5074043;28;20043;-62
2023/08/08 03:15:56;;;;;;;2.55;1.27;;;20.50;69.20;;;;;;5074414;28;20491;-62
2023/08/08 03:18:22;;;;;;;2.20;0.80;;;20.50;69.20;;;;;;5074185;28;20494;-62
2023/08/08 03:20:48;;;;;;;2.28;0.90;;;20.50;69.30;;;;;;5072825;28;20041;-62
2023/08/08 03:23:14;;;;;;;2.35;1.10;;;20.50;69.30;;;;;;5071630;28;20368;-62
2023/08/08 03:25:39;;;;;;;2.45;1.00;;;20.50;69.30;;;;;;5073040;28;20071;-62
2023/08/08 03:28:05;;;;;;;2.33;0.90;;;20.50;69.30;;;;;;5071981;28;20123;-62
2023/08/08 03:30:31;;;;;;;2.80;0.90;;;20.50;69.30;;;;;;5073335;28;20052;-62
2023/08/08 03:32:56;;;;;;;3.63;1.10;;;20.50;69.30;;;;;;5073272;28;20113;-62
2023/08/08 03:35:22;;;;;;;1.48;0.77;;;20.50;69.30;;;;;;5073317;28;20044;-62
2023/08/08 03:37:47;;;;;;;2.17;0.98;;;20.50;69.30;;;;;;5073718;28;20051;-62
2023/08/08 03:40:14;;;;;;;2.53;0.88;;;20.50;69.30;;;;;;5074152;28;20046;-62
2023/08/08 03:42:40;;;;;;;1.65;0.77;;;20.50;69.30;;;;;;5072734;28;20583;-63
2023/08/08 03:45:06;;;;;;;2.20;1.10;;;20.50;69.30;;;;;;5073840;28;20047;-62
2023/08/08 03:47:31;;;;;;;1.83;1.02;;;20.50;69.30;;;;;;5073844;28;20407;-63
2023/08/08 03:49:57;;;;;;;1.92;0.90;;;20.50;69.30;;;;;;5072712;28;20058;-62
2023/08/08 03:52:24;;;;;;;1.38;0.70;;;20.50;69.30;;;;;;5073773;28;20048;-62
2023/08/08 03:54:49;;;;;;;2.85;0.88;;;20.40;69.30;;;;;;5072426;28;20472;-62
2023/08/08 03:57:15;;;;;;;2.83;1.05;;;20.40;69.30;;;;;;5073066;28;20078;-62
2023/08/08 03:59:40;;;;;;;2.35;1.00;;;20.40;69.30;;;;;;5073259;28;20048;-62
2023/08/08 04:02:06;;;;;;;1.80;0.90;;;20.40;69.30;;;;;;5064872;28;20044;-62
2023/08/08 04:04:31;;;;;;;2.08;0.90;;;20.40;69.30;;;;;;5070854;28;20037;-63
2023/08/08 04:06:57;;;;;;;2.45;1.02;;;20.40;69.30;;;;;;5072733;28;20051;-62
2023/08/08 04:09:22;;;;;;;1.42;0.80;;;20.40;69.90;;;;;;5072745;28;20037;-62
2023/08/08 04:11:48;;;;;;;2.25;0.80;;;20.40;69.30;;;;;;5073418;28;20044;-62
2023/08/08 04:14:14;;;;;;;2.58;1.33;;;20.40;69.30;;;;;;5073458;28;20032;-62
2023/08/08 04:16:39;;;;;;;2.58;0.88;;;20.40;69.30;;;;;;5072497;28;20037;-62
2023/08/08 04:19:05;;;;;;;2.05;0.98;;;20.40;69.30;;;;;;5073468;28;20085;-62
2023/08/08 04:21:32;;;;;;;2.80;0.90;;;20.40;69.30;;;;;;5071612;28;20044;-62
2023/08/08 04:23:58;;;;;;;2.33;0.90;;;20.40;69.30;;;;;;5072368;28;20428;-62
2023/08/08 04:26:24;;;;;;;3.00;1.10;;;20.40;69.30;;;;;;5073318;28;20518;-62
2023/08/08 04:28:49;;;;;;;1.90;1.00;;;20.40;69.30;;;;;;5072984;28;20076;-62
2023/08/08 04:31:15;;;;;;;2.42;0.80;;;20.40;69.30;;;;;;5070850;28;20036;-62
2023/08/08 04:33:40;;;;;;;2.33;0.95;;;20.40;69.30;;;;;;5072184;28;20131;-62
2023/08/08 04:36:06;;;;;;;2.13;0.88;;;20.40;69.30;;;;;;5072888;28;20406;-62
2023/08/08 04:38:32;;;;;;;1.73;0.90;;;20.40;69.30;;;;;;5070996;28;20190;-62
2023/08/08 04:40:57;;;;;;;2.10;0.80;;;20.30;69.30;;;;;;5072435;28;20056;-62
2023/08/08 04:43:23;;;;;;;2.85;1.00;;;20.40;69.40;;;;;;5073526;28;20055;-62
2023/08/08 04:45:48;;;;;;;3.05;1.35;;;20.40;69.30;;;;;;5072182;28;20047;-63
2023/08/08 04:48:14;;;;;;;1.75;0.93;;;20.40;69.40;;;;;;5070945;28;20059;-63
2023/08/08 04:50:40;;;;;;;3.40;0.90;;;20.40;69.40;;;;;;5072139;28;20121;-62
2023/08/08 04:53:06;;;;;;;1.98;1.13;;;20.40;69.40;;;;;;5071865;28;20040;-62
2023/08/08 04:55:31;;;;;;;1.42;0.65;;;20.40;69.40;;;;;;5073114;28;20142;-62
2023/08/08 04:57:57;;;;;;;1.52;0.80;;;20.40;69.40;;;;;;5072412;28;20048;-62
2023/08/08 05:00:23;;;;;;;2.42;0.82;;;20.40;69.40;;;;;;5072120;28;20040;-62
2023/08/08 05:02:48;;;;;;;1.80;0.85;;;20.40;69.40;;;;;;5071992;28;20046;-62
2023/08/08 05:05:14;;;;;;;1.90;0.80;;;20.40;69.40;;;;;;5072597;28;20040;-62
2023/08/08 05:07:40;;;;;;;1.63;0.70;;;20.40;69.40;;;;;;5071592;28;20139;-62
2023/08/08 05:10:06;;;;;;;1.27;0.80;;;20.40;69.50;;;;;;5072816;28;20093;-62
2023/08/08 05:12:32;;;;;;;1.65;0.90;;;20.40;69.50;;;;;;5070590;28;20048;-62
2023/08/08 05:14:57;;;;;;;1.85;0.80;;;20.30;69.40;;;;;;5071958;28;20052;-62
2023/08/08 05:17:23;;;;;;;1.50;0.77;;;20.40;69.50;;;;;;5072701;28;20068;-62
2023/08/08 05:19:49;;;;;;;2.97;0.80;;;20.40;69.60;;;;;;5071422;28;20036;-62
2023/08/08 05:22:14;;;;;;;2.35;0.90;;;20.40;69.60;;;;;;5072043;28;20561;-62
2023/08/08 05:24:40;;;;;;;2.05;0.88;;;20.40;69.70;;;;;;5072262;28;20047;-62
2023/08/08 05:27:06;;;;;;;1.55;0.90;;;20.40;69.80;;;;;;5071697;28;20075;-62
2023/08/08 05:29:31;;;;;;;2.17;1.00;;;20.40;69.90;;;;;;5072729;28;20041;-62
2023/08/08 05:31:57;;;;;;;3.22;0.90;;;20.40;69.90;;;;;;5071702;28;20064;-62
2023/08/08 05:34:24;;;;;;;2.25;0.82;;;20.40;69.90;;;;;;5071479;28;20430;-63
2023/08/08 05:36:49;;;;;;;1.58;0.80;;;20.40;69.90;;;;;;5071911;28;20099;-62
2023/08/08 05:39:15;;;;;;;1.50;0.80;;;20.40;69.90;;;;;;5072550;28;20433;-62
2023/08/08 05:41:40;;;;;;;2.42;0.75;;;20.50;69.90;;;;;;5071437;28;20049;-63
2023/08/08 05:44:06;;;;;;;2.40;0.75;;;20.50;69.90;;;;;;5072425;28;20032;-62
2023/08/08 05:46:31;;;;;;;2.70;1.00;;;20.50;70.00;;;;;;5073450;28;20480;-62
2023/08/08 05:48:57;;;;;;;1.90;0.70;;;20.50;69.90;;;;;;5075103;28;20075;-63
2023/08/08 05:51:22;;;;;;;2.17;0.90;;;20.50;70.00;;;;;;5075544;28;20036;-62
2023/08/08 05:53:48;;;;;;;1.98;0.80;;;20.50;69.90;;;;;;5075875;28;20036;-62
2023/08/08 05:56:14;;;;;;;2.65;0.90;;;20.50;69.90;;;;;;5075114;28;20044;-63
2023/08/08 05:58:39;;;;;;;1.45;0.80;;;20.40;69.90;;;;;;5074176;28;20041;-63
2023/08/08 06:01:09;;;;;;;2.22;0.80;;;20.40;69.90;;;;;;5075352;28;20472;-62
2023/08/08 06:03:34;;;;;;;2.72;0.90;;;20.40;69.90;;;;;;5074954;28;20059;-63
2023/08/08 06:06:00;;;;;;;2.65;0.75;;;20.40;69.90;;;;;;5075297;28;20056;-62
2023/08/08 06:08:25;;;;;;;2.00;0.93;;;20.40;69.80;;;;;;5076017;28;20040;-62
2023/08/08 06:10:51;;;;;;;2.78;0.90;;;20.40;69.80;;;;;;5073336;28;20488;-62
2023/08/08 06:13:17;;;;;;;1.90;1.00;;;20.40;69.80;;;;;;5075596;28;20099;-62
2023/08/08 06:15:42;;;;;;;2.85;1.00;;;20.40;69.80;;;;;;5074104;28;20047;-62
2023/08/08 06:18:08;;;;;;;2.42;0.82;;;20.40;69.90;;;;;;5075467;28;20040;-62
2023/08/08 06:20:34;;;;;;;3.45;1.02;;;20.40;69.90;;;;;;5074720;28;20476;-62
2023/08/08 06:22:59;;;;;;;5.80;1.45;;;20.40;70.00;;;;;;5074415;28;20040;-63
2023/08/08 06:25:25;;;;;;;3.05;0.90;;;20.40;70.00;;;;;;5075586;28;20487;-62
2023/08/08 06:27:50;;;;;;;2.83;1.00;;;20.40;70.00;;;;;;5075376;28;20060;-63
2023/08/08 06:30:16;;;;;;;3.25;1.00;;;20.40;70.00;;;;;;5073545;28;20037;-63
2023/08/08 06:32:42;;;;;;;1.83;0.98;;;20.50;70.00;;;;;;5074791;28;20492;-63
2023/08/08 06:35:08;;;;;;;3.08;0.95;;;20.40;70.00;;;;;;5074906;28;20052;-62
2023/08/08 06:37:33;;;;;;;4.20;0.90;;;20.50;70.10;;;;;;5074107;28;20051;-63
2023/08/08 06:39:59;;;;;;;2.47;1.10;;;20.50;70.10;;;;;;5075347;28;20045;-63
2023/08/08 06:42:25;;;;;;;4.55;1.10;;;20.50;70.10;;;;;;5075273;28;20044;-62
2023/08/08 06:44:50;;;;;;;3.42;1.05;;;20.50;70.20;;;;;;5074344;28;20404;-63
2023/08/08 06:47:16;;;;;;;3.60;1.08;;;20.50;70.20;;;;;;5075008;28;20045;-63
2023/08/08 06:49:41;;;;;;;3.28;0.90;;;20.50;70.10;;;;;;5074529;28;20033;-62
2023/08/08 06:52:07;;;;;;;4.05;1.25;;;20.60;70.20;;;;;;5073878;28;20044;-62
2023/08/08 06:54:33;;;;;;;5.03;0.90;;;20.60;70.20;;;;;;5071831;28;20472;-62
2023/08/08 06:56:58;;;;;;;6.13;1.20;;;20.60;70.30;;;;;;5074431;28;20503;-62
2023/08/08 06:59:25;;;;;;;5.15;1.27;;;20.60;70.30;;;;;;5072529;28;20131;-62
2023/08/08 07:01:50;;;;;;;3.58;1.10;;;20.60;70.30;;;;;;5073944;28;20048;-62
2023/08/08 07:04:17;;;;;;;5.82;1.15;;;20.60;70.40;;;;;;5074308;28;20124;-61
2023/08/08 07:06:43;;;;;;;2.92;0.98;;;20.60;70.40;;;;;;5073724;28;20118;-63
2023/08/08 07:09:10;;;;;;;3.58;1.17;;;20.60;70.30;;;;;;5074464;28;20044;-62
2023/08/08 07:11:36;;;;;;;3.40;1.35;;;20.60;70.30;;;;;;5074381;28;20123;-61
2023/08/08 07:14:02;;;;;;;3.30;0.90;;;20.60;70.30;;;;;;5073844;28;20052;-61
2023/08/08 07:16:28;;;;;;;5.28;0.85;;;20.60;70.30;;;;;;5074489;28;20041;-62
2023/08/08 07:18:53;;;;;;;6.97;1.45;;;20.70;70.30;;;;;;5073357;28;20044;-62
2023/08/08 07:21:20;;;;;;;4.88;0.88;;;20.70;70.40;;;;;;5072271;28;20044;-62
2023/08/08 07:23:45;;;;;;;3.70;1.00;;;20.70;70.40;;;;;;5073995;28;20097;-62
2023/08/08 07:26:11;;;;;;;3.75;0.95;;;20.70;70.40;;;;;;5073314;28;20044;-62
2023/08/08 07:28:36;;;;;;;3.20;0.90;;;20.70;70.30;;;;;;5073589;28;20410;-62
2023/08/08 07:31:02;;;;;;;1.83;0.82;;;20.70;70.30;;;;;;5070960;28;20045;-62
2023/08/08 07:33:28;;;;;;;3.25;1.10;;;20.70;70.30;;;;;;5073020;28;20048;-62
2023/08/08 07:35:53;;;;;;;3.80;0.93;;;20.70;70.20;;;;;;5073054;28;20049;-60
2023/08/08 07:38:19;;;;;;;2.78;0.90;;;20.80;70.20;;;;;;5071771;28;20047;-61
2023/08/08 07:40:45;;;;;;;2.63;0.93;;;20.80;70.20;;;;;;5072516;28;20068;-61
2023/08/08 07:43:11;;;;;;;3.35;0.90;;;20.80;70.00;;;;;;5073930;28;20048;-62
2023/08/08 07:45:37;;;;;;;4.05;1.05;;;20.80;69.90;;;;;;5073607;28;20033;-62
2023/08/08 07:48:03;;;;;;;3.30;1.08;;;20.80;69.80;;;;;;5073113;28;20033;-62
2023/08/08 07:50:29;;;;;;;3.67;0.80;;;20.80;69.80;;;;;;5072913;28;20087;-61
2023/08/08 07:52:55;;;;;;;3.80;0.82;;;20.80;69.70;;;;;;5073331;28;20109;-62
2023/08/08 07:55:20;;;;;;;3.67;1.10;;;20.80;69.80;;;;;;5070990;28;20059;-61
2023/08/08 07:57:46;;;;;;;7.07;1.10;;;20.80;69.80;;;;;;5072245;28;20032;-62
2023/08/08 08:00:12;;;;;;;3.10;0.98;;;20.80;69.70;;;;;;5073283;28;20396;-61
2023/08/08 08:02:39;;;;;;;3.03;0.70;;;20.90;69.80;;;;;;5072492;28;20040;-62
2023/08/08 08:05:07;;;;;;;3.55;0.90;;;20.90;69.70;;;;;;5073197;28;20072;-61
2023/08/08 08:07:33;;;;;;;3.60;0.93;;;20.90;69.70;;;;;;5072301;28;20040;-61
2023/08/08 08:09:59;;;;;;;4.22;0.77;;;21.00;69.70;;;;;;5070526;28;20547;-61
2023/08/08 08:12:24;;;;;;;3.28;0.82;;;20.90;69.60;;;;;;5073308;28;20063;-61
2023/08/08 08:14:50;;;;;;;3.25;0.93;;;20.90;69.50;;;;;;5072902;28;20048;-61
2023/08/08 08:17:15;;;;;;;4.72;0.80;;;20.90;69.50;;;;;;5072420;28;20040;-61
2023/08/08 08:19:41;;;;;;;2.33;0.65;;;21.00;69.50;;;;;;5072829;28;20076;-62
2023/08/08 08:22:07;;;;;;;4.80;1.00;;;21.00;69.40;;;;;;5073262;28;20455;-60
2023/08/08 08:24:32;;;;;;;4.53;1.30;;;21.00;69.30;;;;;;5071974;28;20048;-60
2023/08/08 08:26:58;;;;;;;3.25;0.93;;;21.00;69.20;;;;;;5073141;28;20120;-61
2023/08/08 08:29:23;;;;;;;5.70;1.00;;;21.00;68.90;;;;;;5071593;28;20051;-61
2023/08/08 08:31:49;;;;;;;3.13;1.00;;;21.00;68.60;;;;;;5072231;28;20048;-60
2023/08/08 08:34:15;;;;;;;5.30;0.98;;;21.00;68.20;;;;;;5071224;28;20393;-60
2023/08/08 08:36:40;;;;;;;2.65;0.80;;;21.00;68.00;;;;;;5070813;28;20051;-61
2023/08/08 08:39:06;;;;;;;4.00;0.80;;;21.00;67.70;;;;;;5072992;28;20495;-61
2023/08/08 08:41:31;;;;;;;5.15;0.90;;;21.00;67.40;;;;;;5072774;28;20143;-61
2023/08/08 08:43:57;;;;;;;3.35;0.73;;;21.00;67.30;;;;;;5054055;28;20047;-61
2023/08/08 08:46:22;;;;;;;5.30;0.85;;;20.90;67.10;;;;;;5072743;28;20526;-61
2023/08/08 08:48:51;;;;;;;4.60;0.90;;;20.90;67.00;;;;;;5054167;28;20043;-61
2023/08/08 08:51:18;;;;;;;5.63;0.85;;;20.90;66.90;;;;;;5070740;28;20492;-61
2023/08/08 08:53:46;;;;;;;4.38;0.70;;;21.00;66.80;;;;;;5072548;28;20047;-62
2023/08/08 08:56:16;;;;;;;3.15;0.90;;;20.90;66.70;;;;;;5070892;28;20422;-60
2023/08/08 08:58:42;;;;;;;5.90;1.10;;;21.00;66.60;;;;;;5069277;28;20051;-61
2023/08/08 09:01:08;;;;;;;5.65;1.00;;;21.00;66.60;;;;;;5072323;28;20053;-61
2023/08/08 09:03:34;;;;;;;7.35;1.00;;;21.00;66.50;;;;;;5072539;28;20120;-62
2023/08/08 09:06:00;;;;;;;6.22;0.90;;;21.00;66.40;;;;;;5071789;28;20127;-61
2023/08/08 09:08:25;;;;;;;6.15;0.80;;;21.00;66.20;;;;;;5072492;28;20119;-63
2023/08/08 09:10:51;;;;;;;6.32;1.05;;;21.10;66.30;;;;;;5037037;28;20480;-62
2023/08/08 09:13:17;;;;;;;6.15;1.10;;;21.10;66.30;;;;;;5071794;28;20086;-62
2023/08/08 09:15:47;;;;;;;9.88;1.17;;;21.00;66.30;;;;;;5072299;28;20043;-62
2023/08/08 09:18:12;;;;;;;5.75;0.90;;;21.00;66.30;;;;;;5072556;28;20469;-62
2023/08/08 09:20:38;;;;;;;9.00;1.10;;;21.00;66.30;;;;;;5070713;28;20087;-62
2023/08/08 09:23:04;;;;;;;8.13;1.33;;;21.10;66.50;;;;;;5075809;28;20047;-61
2023/08/08 09:25:29;;;;;;;10.50;1.50;;;21.10;66.80;;;;;;5075786;28;20056;-62
2023/08/08 09:27:55;;;;;;;8.57;1.10;;;21.10;66.90;;;;;;5057845;28;20040;-61
2023/08/08 09:30:21;;;;;;;6.28;1.30;;;21.10;67.20;;;;;;5075324;28;20084;-61
2023/08/08 09:32:46;;;;;;;11.30;1.63;;;21.10;67.30;;;;;;5074770;28;20102;-60
2023/08/08 09:35:12;;;;;;;12.27;1.50;;;21.10;67.40;;;;;;5076199;28;20066;-61
2023/08/08 09:37:38;;;;;;;10.68;1.25;;;21.10;67.40;;;;;;5075944;28;20037;-62
2023/08/08 09:40:05;;;;;;;9.05;1.77;;;21.20;67.50;;;;;;5075354;28;20072;-61
2023/08/08 09:42:31;;;;;;;5.57;1.38;;;21.20;67.50;;;;;;5075906;28;20080;-62
2023/08/08 09:44:57;;;;;;;9.75;1.60;;;21.20;67.50;;;;;;5075882;28;20062;-61
2023/08/08 09:47:22;;;;;;;6.15;1.08;;;21.20;67.50;;;;;;5075613;28;20041;-62
2023/08/08 09:49:48;;;;;;;5.38;1.25;;;21.20;67.50;;;;;;5075994;28;20032;-61
2023/08/08 09:52:13;;;;;;;8.32;1.48;;;21.20;67.40;;;;;;5075664;28;20476;-61
2023/08/08 09:54:39;;;;;;;8.90;1.45;;;21.20;67.40;;;;;;5073621;28;20044;-61
2023/08/08 09:57:06;;;;;;;6.88;1.30;;;21.20;67.40;;;;;;5058259;28;20045;-62
2023/08/08 09:59:32;;;;;;;8.18;1.00;;;21.20;67.40;;;;;;5074114;28;20039;-62
2023/08/08 10:01:57;;;;;;;5.22;1.10;;;21.20;67.30;;;;;;5072986;28;20040;-62
2023/08/08 10:04:23;;;;;;;5.18;0.95;;;21.20;67.30;;;;;;5071379;28;20044;-61
2023/08/08 10:06:48;;;;;;;10.18;1.33;;;21.20;67.40;;;;;;5057580;28;20044;-62
2023/08/08 10:09:14;;;;;;;7.88;1.42;;;21.20;67.50;;;;;;5057740;28;20120;-62
2023/08/08 10:11:41;;;;;;;5.65;0.90;;;21.20;67.50;;;;;;5073976;28;20044;-62
2023/08/08 10:14:07;;;;;;;7.47;1.15;;;21.20;67.60;;;;;;5061396;28;20040;-62
2023/08/08 10:16:36;;;;;;;5.20;1.20;;;21.20;67.60;;;;;;5068024;28;20073;-61
2023/08/08 10:19:03;;;;;;;6.93;1.08;;;21.20;67.60;;;;;;5059537;28;20488;-61
2023/08/08 10:21:35;;;;;;;5.25;1.10;;;21.20;67.60;;;;;;5069026;28;20454;-61
2023/08/08 10:24:05;;;;;;;6.03;1.00;;;21.20;67.60;;;;;;5071783;28;20051;-61
2023/08/08 10:26:31;;;;;;;5.68;0.77;;;21.30;67.70;;;;;;5074755;28;20660;-62
2023/08/08 10:28:57;;;;;;;6.65;1.00;;;21.20;67.70;;;;;;5074427;28;20507;-62
2023/08/08 10:31:22;;;;;;;5.82;1.10;;;21.20;67.80;;;;;;5074973;28;20133;-61
2023/08/08 10:33:49;;;;;;;5.30;1.30;;;21.20;67.80;;;;;;5068900;28;20451;-61
2023/08/08 10:36:15;;;;;;;6.72;1.20;;;21.20;67.90;;;;;;5070672;28;20036;-61
2023/08/08 10:38:46;;;;;;;6.32;0.88;;;21.20;67.90;;;;;;5057962;28;20029;-61
2023/08/08 10:41:13;;;;;;;5.03;0.90;;;21.20;68.00;;;;;;5063822;28;20045;-62
2023/08/08 10:43:46;;;;;;;4.97;1.30;;;21.20;68.00;;;;;;5054289;28;20045;-61
2023/08/08 10:46:11;;;;;;;8.57;1.15;;;21.20;68.00;;;;;;5071433;28;20408;-61
2023/08/08 10:48:37;;;;;;;5.93;1.00;;;21.30;68.20;;;;;;5074279;28;20032;-61
2023/08/08 10:51:05;;;;;;;5.40;0.80;;;21.30;68.20;;;;;;5056024;28;20036;-61
2023/08/08 10:53:30;;;;;;;4.90;1.23;;;21.30;68.20;;;;;;5074431;28;20044;-62
2023/08/08 10:56:01;;;;;;;13.70;1.30;;;21.30;68.20;;;;;;5073517;28;20037;-62
2023/08/08 10:58:41;;;;;;;4.03;0.85;;;21.30;68.20;;;;;;5074016;28;20105;-62
2023/08/08 11:01:10;;;;;;;6.93;1.23;;;21.30;68.10;;;;;;5074598;28;20068;-62
2023/08/08 11:03:36;;;;;;;4.28;0.80;;;21.30;68.10;;;;;;5074331;28;20052;-62
2023/08/08 11:06:03;;;;;;;3.15;0.90;;;21.30;68.10;;;;;;5073615;28;20095;-61
2023/08/08 11:08:30;;;;;;;6.63;1.50;;;21.30;68.20;;;;;;5074675;28;20036;-62
2023/08/08 11:10:56;;;;;;;3.15;0.82;;;21.30;68.20;;;;;;5074427;28;20048;-62
2023/08/08 11:13:22;;;;;;;5.38;0.90;;;21.30;68.30;;;;;;5073986;28;20174;-62
2023/08/08 11:15:47;;;;;;;4.95;0.90;;;21.30;68.30;;;;;;5073879;28;20110;-63
2023/08/08 11:18:13;;;;;;;8.32;1.10;;;21.30;68.30;;;;;;5072033;28;20044;-63
2023/08/08 11:20:39;;;;;;;5.28;1.10;;;21.30;68.30;;;;;;5071711;28;20070;-63
2023/08/08 11:23:09;;;;;;;4.15;1.30;;;21.30;68.40;;;;;;5072238;28;20090;-62
2023/08/08 11:25:35;;;;;;;9.73;1.35;;;21.30;68.50;;;;;;5070002;28;20458;-63
2023/08/08 11:28:01;;;;;;;7.15;1.30;;;21.30;68.70;;;;;;5073810;28;20480;-62
2023/08/08 11:30:32;;;;;;;6.10;1.00;;;21.30;68.70;;;;;;5071958;28;20052;-62
2023/08/08 11:32:57;;;;;;;4.55;1.13;;;21.30;68.80;;;;;;5071063;28;20485;-62
2023/08/08 11:35:24;;;;;;;6.10;1.20;;;21.30;68.80;;;;;;5073730;28;20043;-63
2023/08/08 11:37:50;;;;;;;7.93;1.38;;;21.30;68.80;;;;;;5071879;28;20040;-63
2023/08/08 11:40:15;;;;;;;5.90;1.13;;;21.30;69.40;;;;;;5071002;28;20483;-62
2023/08/08 11:42:41;;;;;;;5.28;1.20;;;21.30;68.90;;;;;;5071653;28;20049;-62
2023/08/08 11:45:09;;;;;;;6.45;1.02;;;21.30;69.00;;;;;;5071380;28;20028;-62
2023/08/08 11:47:36;;;;;;;2.78;0.95;;;21.30;69.00;;;;;;5070722;28;20087;-62
2023/08/08 11:50:06;;;;;;;5.00;0.88;;;21.30;69.00;;;;;;5073162;28;20044;-63
2023/08/08 11:52:32;;;;;;;7.40;1.17;;;21.30;69.00;;;;;;5073186;28;20045;-62
2023/08/08 11:55:01;;;;;;;5.82;1.00;;;21.30;69.10;;;;;;5071815;28;20070;-62
2023/08/08 11:57:27;;;;;;;4.75;1.00;;;21.30;69.10;;;;;;5070719;28;20043;-63
2023/08/08 11:59:53;;;;;;;4.10;0.90;;;21.30;69.10;;;;;;5071284;28;20071;-62
2023/08/08 12:02:19;;;;;;;3.63;1.10;;;21.30;69.20;;;;;;5070648;28;20044;-62
2023/08/08 12:04:47;;;;;;;3.25;0.77;;;21.30;69.20;;;;;;5073207;28;20043;-62
2023/08/08 12:07:13;;;;;;;8.80;1.25;;;21.30;69.30;;;;;;5072514;28;20036;-62
2023/08/08 12:09:39;;;;;;;3.38;0.82;;;21.30;69.30;;;;;;5072205;28;20045;-62
2023/08/08 12:12:05;;;;;;;5.20;1.30;;;21.30;69.40;;;;;;5070657;28;20086;-61
2023/08/08 12:14:36;;;;;;;4.95;0.93;;;21.30;69.50;;;;;;5072235;28;20067;-62
2023/08/08 12:17:02;;;;;;;3.85;0.98;;;21.30;69.60;;;;;;5073133;28;20055;-63
2023/08/08 12:19:28;;;;;;;4.32;1.00;;;21.20;69.50;;;;;;5073220;28;20051;-63
2023/08/08 12:21:54;;;;;;;4.57;0.85;;;21.30;69.60;;;;;;5071821;28;20048;-62
2023/08/08 12:24:20;;;;;;;4.05;0.95;;;21.20;69.50;;;;;;5072754;28;20082;-63
2023/08/08 12:26:45;;;;;;;4.32;0.90;;;21.20;69.60;;;;;;5072795;28;20437;-63
2023/08/08 12:29:12;;;;;;;4.85;0.70;;;21.20;69.60;;;;;;5072064;28;20106;-63
2023/08/08 12:31:38;;;;;;;4.88;0.80;;;21.20;69.60;;;;;;5072146;28;20088;-63
2023/08/08 12:34:04;;;;;;;4.20;0.98;;;21.20;69.60;;;;;;5072527;28;20476;-62
2023/08/08 12:36:30;;;;;;;3.55;1.15;;;21.30;69.60;;;;;;5054059;28;20044;-62
2023/08/08 12:38:55;;;;;;;3.88;1.10;;;21.30;69.60;;;;;;5069651;28;20101;-62